sensor_id;sensor_type;location;lat;lon;timestamp;P1;durP1;ratioP1;P2;durP2;ratioP2
67819;SDS011;54618;52.018;5.576;2022-08-30T00:00:22;3.88;;;1.80;;
67819;SDS011;54618;52.018;5.576;2022-08-30T00:03:08;3.33;;;1.70;;
67819;SDS011;54618;52.018;5.576;2022-08-30T00:05:36;3.03;;;1.58;;
67819;SDS011;54618;52.018;5.576;2022-08-30T00:08:03;4.10;;;2.00;;
67819;SDS011;54618;52.018;5.576;2022-08-30T00:10:29;3.75;;;1.65;;
67819;SDS011;54618;52.018;5.576;2022-08-30T00:12:56;5.38;;;1.80;;
67819;SDS011;54618;52.018;5.576;2022-08-30T00:15:22;3.38;;;1.63;;
67819;SDS011;54618;52.018;5.576;2022-08-30T00:17:49;3.55;;;1.80;;
67819;SDS011;54618;52.018;5.576;2022-08-30T00:20:17;4.25;;;1.70;;
67819;SDS011;54618;52.018;5.576;2022-08-30T00:22:45;2.90;;;1.70;;
67819;SDS011;54618;52.018;5.576;2022-08-30T00:25:11;3.10;;;1.65;;
67819;SDS011;54618;52.018;5.576;2022-08-30T00:27:37;3.97;;;1.90;;
67819;SDS011;54618;52.018;5.576;2022-08-30T00:30:03;2.60;;;1.58;;
67819;SDS011;54618;52.018;5.576;2022-08-30T00:32:30;3.67;;;1.85;;
67819;SDS011;54618;52.018;5.576;2022-08-30T00:34:55;3.28;;;1.73;;
67819;SDS011;54618;52.018;5.576;2022-08-30T00:37:21;2.65;;;1.55;;
67819;SDS011;54618;52.018;5.576;2022-08-30T00:39:47;2.40;;;1.42;;
67819;SDS011;54618;52.018;5.576;2022-08-30T00:42:14;4.03;;;1.70;;
67819;SDS011;54618;52.018;5.576;2022-08-30T00:44:40;3.17;;;1.70;;
67819;SDS011;54618;52.018;5.576;2022-08-30T00:47:06;3.55;;;1.58;;
67819;SDS011;54618;52.018;5.576;2022-08-30T00:49:32;3.03;;;1.70;;
67819;SDS011;54618;52.018;5.576;2022-08-30T00:52:00;2.70;;;1.65;;
67819;SDS011;54618;52.018;5.576;2022-08-30T00:54:27;3.92;;;1.90;;
67819;SDS011;54618;52.018;5.576;2022-08-30T00:56:54;2.97;;;1.63;;
67819;SDS011;54618;52.018;5.576;2022-08-30T00:59:20;4.22;;;1.88;;
67819;SDS011;54618;52.018;5.576;2022-08-30T01:01:48;4.35;;;1.70;;
67819;SDS011;54618;52.018;5.576;2022-08-30T01:04:14;2.83;;;1.58;;
67819;SDS011;54618;52.018;5.576;2022-08-30T01:06:43;3.25;;;1.58;;
67819;SDS011;54618;52.018;5.576;2022-08-30T01:09:10;2.80;;;1.70;;
67819;SDS011;54618;52.018;5.576;2022-08-30T01:11:37;3.15;;;1.80;;
67819;SDS011;54618;52.018;5.576;2022-08-30T01:14:05;4.03;;;1.77;;
67819;SDS011;54618;52.018;5.576;2022-08-30T01:16:33;3.28;;;1.80;;
67819;SDS011;54618;52.018;5.576;2022-08-30T01:18:59;4.30;;;1.73;;
67819;SDS011;54618;52.018;5.576;2022-08-30T01:21:41;3.10;;;1.70;;
67819;SDS011;54618;52.018;5.576;2022-08-30T01:24:14;3.65;;;1.70;;
67819;SDS011;54618;52.018;5.576;2022-08-30T01:26:41;3.47;;;1.50;;
67819;SDS011;54618;52.018;5.576;2022-08-30T01:29:08;2.70;;;1.50;;
67819;SDS011;54618;52.018;5.576;2022-08-30T01:31:37;3.63;;;1.70;;
67819;SDS011;54618;52.018;5.576;2022-08-30T01:34:03;3.30;;;1.67;;
67819;SDS011;54618;52.018;5.576;2022-08-30T01:36:31;4.75;;;1.67;;
67819;SDS011;54618;52.018;5.576;2022-08-30T01:38:58;2.50;;;1.60;;
67819;SDS011;54618;52.018;5.576;2022-08-30T01:41:26;3.10;;;1.80;;
67819;SDS011;54618;52.018;5.576;2022-08-30T01:43:55;2.60;;;1.77;;
67819;SDS011;54618;52.018;5.576;2022-08-30T01:46:23;2.78;;;1.63;;
67819;SDS011;54618;52.018;5.576;2022-08-30T01:48:51;3.47;;;1.80;;
67819;SDS011;54618;52.018;5.576;2022-08-30T01:51:20;2.72;;;1.80;;
67819;SDS011;54618;52.018;5.576;2022-08-30T01:53:48;2.33;;;1.55;;
67819;SDS011;54618;52.018;5.576;2022-08-30T01:56:13;3.78;;;1.83;;
67819;SDS011;54618;52.018;5.576;2022-08-30T01:58:40;3.88;;;2.00;;
67819;SDS011;54618;52.018;5.576;2022-08-30T02:01:07;2.53;;;1.55;;
67819;SDS011;54618;52.018;5.576;2022-08-30T02:03:36;2.80;;;1.70;;
67819;SDS011;54618;52.018;5.576;2022-08-30T02:06:04;3.30;;;1.90;;
67819;SDS011;54618;52.018;5.576;2022-08-30T02:08:35;3.53;;;1.75;;
67819;SDS011;54618;52.018;5.576;2022-08-30T02:11:02;2.58;;;1.65;;
67819;SDS011;54618;52.018;5.576;2022-08-30T02:13:27;4.50;;;2.00;;
67819;SDS011;54618;52.018;5.576;2022-08-30T02:15:54;3.28;;;1.77;;
67819;SDS011;54618;52.018;5.576;2022-08-30T02:18:21;3.55;;;2.10;;
67819;SDS011;54618;52.018;5.576;2022-08-30T02:20:48;4.88;;;2.10;;
67819;SDS011;54618;52.018;5.576;2022-08-30T02:23:14;3.42;;;1.85;;
67819;SDS011;54618;52.018;5.576;2022-08-30T02:25:40;2.83;;;1.90;;
67819;SDS011;54618;52.018;5.576;2022-08-30T02:28:06;4.10;;;1.88;;
67819;SDS011;54618;52.018;5.576;2022-08-30T02:30:32;3.20;;;1.98;;
67819;SDS011;54618;52.018;5.576;2022-08-30T02:32:58;2.70;;;1.85;;
67819;SDS011;54618;52.018;5.576;2022-08-30T02:35:24;2.60;;;1.83;;
67819;SDS011;54618;52.018;5.576;2022-08-30T02:37:50;2.88;;;1.80;;
67819;SDS011;54618;52.018;5.576;2022-08-30T02:40:16;3.08;;;1.80;;
67819;SDS011;54618;52.018;5.576;2022-08-30T02:42:42;3.25;;;1.80;;
67819;SDS011;54618;52.018;5.576;2022-08-30T02:45:08;3.58;;;2.00;;
67819;SDS011;54618;52.018;5.576;2022-08-30T02:47:35;3.50;;;2.10;;
67819;SDS011;54618;52.018;5.576;2022-08-30T02:50:02;3.35;;;2.05;;
67819;SDS011;54618;52.018;5.576;2022-08-30T02:52:29;3.53;;;1.88;;
67819;SDS011;54618;52.018;5.576;2022-08-30T02:54:55;3.85;;;2.00;;
67819;SDS011;54618;52.018;5.576;2022-08-30T02:57:21;3.95;;;1.90;;
67819;SDS011;54618;52.018;5.576;2022-08-30T02:59:47;5.95;;;2.05;;
67819;SDS011;54618;52.018;5.576;2022-08-30T03:02:13;2.45;;;1.80;;
67819;SDS011;54618;52.018;5.576;2022-08-30T03:04:40;3.20;;;2.17;;
67819;SDS011;54618;52.018;5.576;2022-08-30T03:07:08;3.75;;;2.15;;
67819;SDS011;54618;52.018;5.576;2022-08-30T03:09:34;3.55;;;1.98;;
67819;SDS011;54618;52.018;5.576;2022-08-30T03:12:00;3.65;;;2.03;;
67819;SDS011;54618;52.018;5.576;2022-08-30T03:14:26;3.22;;;2.15;;
67819;SDS011;54618;52.018;5.576;2022-08-30T03:16:52;4.03;;;2.13;;
67819;SDS011;54618;52.018;5.576;2022-08-30T03:19:18;3.08;;;2.00;;
67819;SDS011;54618;52.018;5.576;2022-08-30T03:21:44;4.10;;;2.20;;
67819;SDS011;54618;52.018;5.576;2022-08-30T03:24:10;3.60;;;2.22;;
67819;SDS011;54618;52.018;5.576;2022-08-30T03:26:37;3.50;;;2.30;;
67819;SDS011;54618;52.018;5.576;2022-08-30T03:29:03;2.65;;;1.70;;
67819;SDS011;54618;52.018;5.576;2022-08-30T03:31:28;4.90;;;2.38;;
67819;SDS011;54618;52.018;5.576;2022-08-30T03:33:54;3.38;;;2.20;;
67819;SDS011;54618;52.018;5.576;2022-08-30T03:36:19;4.75;;;2.20;;
67819;SDS011;54618;52.018;5.576;2022-08-30T03:38:45;3.03;;;1.88;;
67819;SDS011;54618;52.018;5.576;2022-08-30T03:41:11;4.13;;;2.30;;
67819;SDS011;54618;52.018;5.576;2022-08-30T03:43:36;3.92;;;2.17;;
67819;SDS011;54618;52.018;5.576;2022-08-30T03:46:02;4.60;;;2.17;;
67819;SDS011;54618;52.018;5.576;2022-08-30T03:48:28;3.15;;;2.00;;
67819;SDS011;54618;52.018;5.576;2022-08-30T03:50:54;3.47;;;2.00;;
67819;SDS011;54618;52.018;5.576;2022-08-30T03:53:20;3.60;;;2.33;;
67819;SDS011;54618;52.018;5.576;2022-08-30T03:55:46;3.38;;;2.15;;
67819;SDS011;54618;52.018;5.576;2022-08-30T03:58:11;5.28;;;2.50;;
67819;SDS011;54618;52.018;5.576;2022-08-30T04:00:37;3.53;;;2.25;;
67819;SDS011;54618;52.018;5.576;2022-08-30T04:03:02;4.10;;;2.50;;
67819;SDS011;54618;52.018;5.576;2022-08-30T04:05:28;3.50;;;2.20;;
67819;SDS011;54618;52.018;5.576;2022-08-30T04:07:54;3.50;;;2.47;;
67819;SDS011;54618;52.018;5.576;2022-08-30T04:10:20;3.05;;;2.25;;
67819;SDS011;54618;52.018;5.576;2022-08-30T04:12:46;4.50;;;2.47;;
67819;SDS011;54618;52.018;5.576;2022-08-30T04:15:13;4.13;;;2.45;;
67819;SDS011;54618;52.018;5.576;2022-08-30T04:17:40;4.72;;;2.47;;
67819;SDS011;54618;52.018;5.576;2022-08-30T04:20:06;4.70;;;2.45;;
67819;SDS011;54618;52.018;5.576;2022-08-30T04:22:32;3.65;;;2.20;;
67819;SDS011;54618;52.018;5.576;2022-08-30T04:24:57;4.20;;;2.40;;
67819;SDS011;54618;52.018;5.576;2022-08-30T04:27:23;4.15;;;2.33;;
67819;SDS011;54618;52.018;5.576;2022-08-30T04:29:48;4.10;;;2.42;;
67819;SDS011;54618;52.018;5.576;2022-08-30T04:32:14;3.85;;;2.20;;
67819;SDS011;54618;52.018;5.576;2022-08-30T04:34:40;5.65;;;2.30;;
67819;SDS011;54618;52.018;5.576;2022-08-30T04:37:06;3.75;;;2.58;;
67819;SDS011;54618;52.018;5.576;2022-08-30T04:39:32;3.78;;;2.30;;
67819;SDS011;54618;52.018;5.576;2022-08-30T04:41:57;4.75;;;2.90;;
67819;SDS011;54618;52.018;5.576;2022-08-30T04:44:23;3.65;;;2.30;;
67819;SDS011;54618;52.018;5.576;2022-08-30T04:46:51;3.33;;;2.20;;
67819;SDS011;54618;52.018;5.576;2022-08-30T04:49:17;3.72;;;2.20;;
67819;SDS011;54618;52.018;5.576;2022-08-30T04:51:43;4.65;;;2.40;;
67819;SDS011;54618;52.018;5.576;2022-08-30T04:54:09;3.40;;;2.40;;
67819;SDS011;54618;52.018;5.576;2022-08-30T04:56:36;4.03;;;2.13;;
67819;SDS011;54618;52.018;5.576;2022-08-30T04:59:02;3.60;;;2.40;;
67819;SDS011;54618;52.018;5.576;2022-08-30T05:01:28;3.75;;;2.25;;
67819;SDS011;54618;52.018;5.576;2022-08-30T05:03:55;4.47;;;2.50;;
67819;SDS011;54618;52.018;5.576;2022-08-30T05:06:22;3.60;;;2.50;;
67819;SDS011;54618;52.018;5.576;2022-08-30T05:08:49;3.53;;;2.30;;
67819;SDS011;54618;52.018;5.576;2022-08-30T05:11:16;3.78;;;2.47;;
67819;SDS011;54618;52.018;5.576;2022-08-30T05:13:43;3.88;;;2.45;;
67819;SDS011;54618;52.018;5.576;2022-08-30T05:16:10;4.50;;;2.25;;
67819;SDS011;54618;52.018;5.576;2022-08-30T05:18:41;5.80;;;2.40;;
67819;SDS011;54618;52.018;5.576;2022-08-30T05:21:09;2.70;;;2.00;;
67819;SDS011;54618;52.018;5.576;2022-08-30T05:23:37;3.95;;;2.40;;
67819;SDS011;54618;52.018;5.576;2022-08-30T05:26:08;3.80;;;2.13;;
67819;SDS011;54618;52.018;5.576;2022-08-30T05:28:36;3.88;;;2.38;;
67819;SDS011;54618;52.018;5.576;2022-08-30T05:31:02;2.92;;;2.00;;
67819;SDS011;54618;52.018;5.576;2022-08-30T05:33:36;5.88;;;2.50;;
67819;SDS011;54618;52.018;5.576;2022-08-30T05:36:04;3.58;;;2.30;;
67819;SDS011;54618;52.018;5.576;2022-08-30T05:38:30;4.97;;;2.20;;
67819;SDS011;54618;52.018;5.576;2022-08-30T05:40:56;3.60;;;2.17;;
67819;SDS011;54618;52.018;5.576;2022-08-30T05:43:21;3.25;;;2.40;;
67819;SDS011;54618;52.018;5.576;2022-08-30T05:45:47;4.38;;;2.35;;
67819;SDS011;54618;52.018;5.576;2022-08-30T05:48:12;3.50;;;2.17;;
67819;SDS011;54618;52.018;5.576;2022-08-30T05:50:38;3.17;;;2.05;;
67819;SDS011;54618;52.018;5.576;2022-08-30T05:53:03;2.95;;;1.98;;
67819;SDS011;54618;52.018;5.576;2022-08-30T05:55:29;4.43;;;2.00;;
67819;SDS011;54618;52.018;5.576;2022-08-30T05:57:55;3.38;;;2.00;;
67819;SDS011;54618;52.018;5.576;2022-08-30T06:00:20;3.42;;;2.22;;
67819;SDS011;54618;52.018;5.576;2022-08-30T06:02:46;3.67;;;2.15;;
67819;SDS011;54618;52.018;5.576;2022-08-30T06:05:12;4.40;;;2.30;;
67819;SDS011;54618;52.018;5.576;2022-08-30T06:07:38;3.40;;;2.22;;
67819;SDS011;54618;52.018;5.576;2022-08-30T06:10:03;3.53;;;1.80;;
67819;SDS011;54618;52.018;5.576;2022-08-30T06:12:30;3.97;;;2.10;;
67819;SDS011;54618;52.018;5.576;2022-08-30T06:14:56;3.22;;;2.10;;
67819;SDS011;54618;52.018;5.576;2022-08-30T06:17:21;6.05;;;2.00;;
67819;SDS011;54618;52.018;5.576;2022-08-30T06:19:47;3.28;;;1.85;;
67819;SDS011;54618;52.018;5.576;2022-08-30T06:22:12;3.17;;;1.90;;
67819;SDS011;54618;52.018;5.576;2022-08-30T06:24:38;3.35;;;2.08;;
67819;SDS011;54618;52.018;5.576;2022-08-30T06:27:04;2.63;;;1.52;;
67819;SDS011;54618;52.018;5.576;2022-08-30T06:29:30;3.30;;;1.90;;
67819;SDS011;54618;52.018;5.576;2022-08-30T06:31:56;4.78;;;1.73;;
67819;SDS011;54618;52.018;5.576;2022-08-30T06:34:22;3.30;;;1.90;;
67819;SDS011;54618;52.018;5.576;2022-08-30T06:36:47;3.35;;;1.90;;
67819;SDS011;54618;52.018;5.576;2022-08-30T06:39:13;3.45;;;1.90;;
67819;SDS011;54618;52.018;5.576;2022-08-30T06:41:41;2.22;;;1.60;;
67819;SDS011;54618;52.018;5.576;2022-08-30T06:44:07;2.70;;;1.63;;
67819;SDS011;54618;52.018;5.576;2022-08-30T06:46:34;2.80;;;1.52;;
67819;SDS011;54618;52.018;5.576;2022-08-30T06:49:01;2.80;;;1.50;;
67819;SDS011;54618;52.018;5.576;2022-08-30T06:51:29;3.38;;;1.50;;
67819;SDS011;54618;52.018;5.576;2022-08-30T06:53:57;2.45;;;1.60;;
67819;SDS011;54618;52.018;5.576;2022-08-30T06:56:22;2.95;;;1.65;;
67819;SDS011;54618;52.018;5.576;2022-08-30T06:58:48;4.25;;;1.75;;
67819;SDS011;54618;52.018;5.576;2022-08-30T07:01:16;3.15;;;1.40;;
67819;SDS011;54618;52.018;5.576;2022-08-30T07:03:44;2.20;;;1.40;;
67819;SDS011;54618;52.018;5.576;2022-08-30T07:06:10;2.78;;;1.60;;
67819;SDS011;54618;52.018;5.576;2022-08-30T07:08:37;2.22;;;1.40;;
67819;SDS011;54618;52.018;5.576;2022-08-30T07:11:04;2.25;;;1.40;;
67819;SDS011;54618;52.018;5.576;2022-08-30T07:13:31;3.55;;;1.38;;
67819;SDS011;54618;52.018;5.576;2022-08-30T07:15:57;2.38;;;1.30;;
67819;SDS011;54618;52.018;5.576;2022-08-30T07:18:23;3.08;;;1.42;;
67819;SDS011;54618;52.018;5.576;2022-08-30T07:21:09;2.03;;;1.30;;
67819;SDS011;54618;52.018;5.576;2022-08-30T07:23:36;1.95;;;1.30;;
67819;SDS011;54618;52.018;5.576;2022-08-30T07:26:03;1.90;;;1.13;;
67819;SDS011;54618;52.018;5.576;2022-08-30T07:28:30;2.15;;;1.40;;
67819;SDS011;54618;52.018;5.576;2022-08-30T07:30:55;2.88;;;1.35;;
67819;SDS011;54618;52.018;5.576;2022-08-30T07:33:21;2.08;;;1.30;;
67819;SDS011;54618;52.018;5.576;2022-08-30T07:35:46;3.42;;;1.23;;
67819;SDS011;54618;52.018;5.576;2022-08-30T07:38:13;3.55;;;1.20;;
67819;SDS011;54618;52.018;5.576;2022-08-30T07:40:39;1.52;;;1.10;;
67819;SDS011;54618;52.018;5.576;2022-08-30T07:43:05;1.90;;;1.10;;
67819;SDS011;54618;52.018;5.576;2022-08-30T07:45:31;6.03;;;1.17;;
67819;SDS011;54618;52.018;5.576;2022-08-30T07:47:56;1.98;;;1.30;;
67819;SDS011;54618;52.018;5.576;2022-08-30T07:50:22;3.30;;;1.25;;
67819;SDS011;54618;52.018;5.576;2022-08-30T07:52:48;3.33;;;1.20;;
67819;SDS011;54618;52.018;5.576;2022-08-30T07:55:13;2.78;;;1.15;;
67819;SDS011;54618;52.018;5.576;2022-08-30T07:57:40;3.08;;;0.90;;
67819;SDS011;54618;52.018;5.576;2022-08-30T08:00:06;2.53;;;1.27;;
67819;SDS011;54618;52.018;5.576;2022-08-30T08:02:32;2.70;;;1.10;;
67819;SDS011;54618;52.018;5.576;2022-08-30T08:04:57;3.03;;;1.20;;
67819;SDS011;54618;52.018;5.576;2022-08-30T08:07:23;2.33;;;1.20;;
67819;SDS011;54618;52.018;5.576;2022-08-30T08:09:49;2.08;;;1.10;;
67819;SDS011;54618;52.018;5.576;2022-08-30T08:12:14;3.13;;;1.20;;
67819;SDS011;54618;52.018;5.576;2022-08-30T08:14:40;2.05;;;1.00;;
67819;SDS011;54618;52.018;5.576;2022-08-30T08:17:06;3.30;;;1.00;;
67819;SDS011;54618;52.018;5.576;2022-08-30T08:19:32;1.95;;;1.15;;
67819;SDS011;54618;52.018;5.576;2022-08-30T08:21:58;1.83;;;1.10;;
67819;SDS011;54618;52.018;5.576;2022-08-30T08:24:27;2.25;;;1.00;;
67819;SDS011;54618;52.018;5.576;2022-08-30T08:26:53;3.15;;;1.42;;
67819;SDS011;54618;52.018;5.576;2022-08-30T08:29:20;2.83;;;1.15;;
67819;SDS011;54618;52.018;5.576;2022-08-30T08:31:46;2.13;;;1.17;;
67819;SDS011;54618;52.018;5.576;2022-08-30T08:34:13;2.00;;;1.10;;
67819;SDS011;54618;52.018;5.576;2022-08-30T08:36:39;2.42;;;1.30;;
67819;SDS011;54618;52.018;5.576;2022-08-30T08:39:06;1.98;;;1.13;;
67819;SDS011;54618;52.018;5.576;2022-08-30T08:44:16;2.03;;;1.00;;
67819;SDS011;54618;52.018;5.576;2022-08-30T08:47:08;1.42;;;0.90;;
67819;SDS011;54618;52.018;5.576;2022-08-30T08:49:45;1.45;;;1.08;;
67819;SDS011;54618;52.018;5.576;2022-08-30T08:52:17;2.05;;;0.90;;
67819;SDS011;54618;52.018;5.576;2022-08-30T08:55:26;3.45;;;1.17;;
67819;SDS011;54618;52.018;5.576;2022-08-30T08:57:54;2.15;;;1.00;;
67819;SDS011;54618;52.018;5.576;2022-08-30T09:00:20;1.52;;;1.10;;
67819;SDS011;54618;52.018;5.576;2022-08-30T09:02:47;2.50;;;1.23;;
67819;SDS011;54618;52.018;5.576;2022-08-30T09:05:24;2.05;;;1.00;;
67819;SDS011;54618;52.018;5.576;2022-08-30T09:08:05;1.67;;;1.05;;
67819;SDS011;54618;52.018;5.576;2022-08-30T09:10:33;1.40;;;1.00;;
67819;SDS011;54618;52.018;5.576;2022-08-30T09:13:00;2.42;;;1.17;;
67819;SDS011;54618;52.018;5.576;2022-08-30T09:15:26;1.80;;;1.02;;
67819;SDS011;54618;52.018;5.576;2022-08-30T09:18:01;3.10;;;1.20;;
67819;SDS011;54618;52.018;5.576;2022-08-30T09:23:10;1.10;;;0.98;;
67819;SDS011;54618;52.018;5.576;2022-08-30T09:28:27;1.70;;;0.98;;
67819;SDS011;54618;52.018;5.576;2022-08-30T09:30:59;2.70;;;1.10;;
67819;SDS011;54618;52.018;5.576;2022-08-30T09:33:30;2.58;;;1.10;;
67819;SDS011;54618;52.018;5.576;2022-08-30T09:35:56;2.17;;;1.17;;
67819;SDS011;54618;52.018;5.576;2022-08-30T09:38:36;2.58;;;1.00;;
67819;SDS011;54618;52.018;5.576;2022-08-30T09:41:24;2.20;;;1.10;;
67819;SDS011;54618;52.018;5.576;2022-08-30T09:47:03;2.85;;;1.10;;
67819;SDS011;54618;52.018;5.576;2022-08-30T09:52:09;2.40;;;1.15;;
67819;SDS011;54618;52.018;5.576;2022-08-30T10:00:26;3.58;;;1.20;;
67819;SDS011;54618;52.018;5.576;2022-08-30T10:05:31;2.97;;;1.10;;
67819;SDS011;54618;52.018;5.576;2022-08-30T10:11:04;3.78;;;1.20;;
67819;SDS011;54618;52.018;5.576;2022-08-30T10:13:41;3.35;;;0.95;;
67819;SDS011;54618;52.018;5.576;2022-08-30T10:25:00;2.20;;;1.02;;
67819;SDS011;54618;52.018;5.576;2022-08-30T10:27:42;2.88;;;0.98;;
67819;SDS011;54618;52.018;5.576;2022-08-30T10:30:29;2.00;;;1.00;;
67819;SDS011;54618;52.018;5.576;2022-08-30T10:35:43;1.42;;;0.90;;
67819;SDS011;54618;52.018;5.576;2022-08-30T10:38:19;2.65;;;1.25;;
67819;SDS011;54618;52.018;5.576;2022-08-30T10:40:51;2.30;;;0.90;;
67819;SDS011;54618;52.018;5.576;2022-08-30T10:43:54;2.13;;;0.93;;
67819;SDS011;54618;52.018;5.576;2022-08-30T10:46:36;2.10;;;1.08;;
67819;SDS011;54618;52.018;5.576;2022-08-30T10:49:26;1.95;;;1.00;;
67819;SDS011;54618;52.018;5.576;2022-08-30T10:52:20;1.67;;;1.08;;
67819;SDS011;54618;52.018;5.576;2022-08-30T10:55:15;2.78;;;1.10;;
67819;SDS011;54618;52.018;5.576;2022-08-30T10:57:46;2.75;;;1.05;;
67819;SDS011;54618;52.018;5.576;2022-08-30T11:00:13;3.78;;;1.10;;
67819;SDS011;54618;52.018;5.576;2022-08-30T11:13:15;2.90;;;1.10;;
67819;SDS011;54618;52.018;5.576;2022-08-30T11:18:50;1.98;;;1.00;;
67819;SDS011;54618;52.018;5.576;2022-08-30T11:34:52;2.58;;;1.05;;
67819;SDS011;54618;52.018;5.576;2022-08-30T11:42:47;1.65;;;1.00;;
67819;SDS011;54618;52.018;5.576;2022-08-30T11:50:22;2.13;;;1.00;;
67819;SDS011;54618;52.018;5.576;2022-08-30T11:56:12;1.92;;;0.90;;
67819;SDS011;54618;52.018;5.576;2022-08-30T11:58:51;3.42;;;1.20;;
67819;SDS011;54618;52.018;5.576;2022-08-30T12:03:58;3.15;;;1.00;;
67819;SDS011;54618;52.018;5.576;2022-08-30T12:11:55;2.70;;;0.98;;
67819;SDS011;54618;52.018;5.576;2022-08-30T12:16:59;3.00;;;1.10;;
67819;SDS011;54618;52.018;5.576;2022-08-30T12:19:46;3.33;;;1.00;;
67819;SDS011;54618;52.018;5.576;2022-08-30T12:22:15;2.15;;;1.10;;
67819;SDS011;54618;52.018;5.576;2022-08-30T12:24:43;1.35;;;0.90;;
67819;SDS011;54618;52.018;5.576;2022-08-30T12:27:26;2.35;;;1.10;;
67819;SDS011;54618;52.018;5.576;2022-08-30T12:29:55;2.15;;;1.00;;
67819;SDS011;54618;52.018;5.576;2022-08-30T12:32:26;2.60;;;0.95;;
67819;SDS011;54618;52.018;5.576;2022-08-30T12:34:54;2.75;;;1.00;;
67819;SDS011;54618;52.018;5.576;2022-08-30T12:37:30;2.08;;;1.10;;
67819;SDS011;54618;52.018;5.576;2022-08-30T12:40:07;2.05;;;0.95;;
67819;SDS011;54618;52.018;5.576;2022-08-30T12:42:34;2.17;;;1.00;;
67819;SDS011;54618;52.018;5.576;2022-08-30T12:45:13;2.78;;;1.20;;
67819;SDS011;54618;52.018;5.576;2022-08-30T12:48:07;2.45;;;1.00;;
67819;SDS011;54618;52.018;5.576;2022-08-30T12:50:56;2.75;;;1.27;;
67819;SDS011;54618;52.018;5.576;2022-08-30T12:56:04;3.00;;;1.00;;
67819;SDS011;54618;52.018;5.576;2022-08-30T12:58:39;2.70;;;0.93;;
67819;SDS011;54618;52.018;5.576;2022-08-30T13:01:10;1.80;;;0.95;;
67819;SDS011;54618;52.018;5.576;2022-08-30T13:03:38;1.98;;;1.17;;
67819;SDS011;54618;52.018;5.576;2022-08-30T13:06:05;2.92;;;0.98;;
67819;SDS011;54618;52.018;5.576;2022-08-30T13:08:33;2.63;;;1.20;;
67819;SDS011;54618;52.018;5.576;2022-08-30T13:11:21;2.95;;;1.30;;
67819;SDS011;54618;52.018;5.576;2022-08-30T13:13:53;1.88;;;0.90;;
67819;SDS011;54618;52.018;5.576;2022-08-30T13:16:26;3.70;;;1.10;;
67819;SDS011;54618;52.018;5.576;2022-08-30T13:19:18;3.95;;;1.10;;
67819;SDS011;54618;52.018;5.576;2022-08-30T13:21:56;2.63;;;0.90;;
67819;SDS011;54618;52.018;5.576;2022-08-30T13:24:22;2.25;;;1.05;;
67819;SDS011;54618;52.018;5.576;2022-08-30T13:26:49;2.53;;;1.05;;
67819;SDS011;54618;52.018;5.576;2022-08-30T13:29:19;2.08;;;1.00;;
67819;SDS011;54618;52.018;5.576;2022-08-30T13:31:47;2.75;;;1.20;;
67819;SDS011;54618;52.018;5.576;2022-08-30T13:34:13;4.55;;;1.30;;
67819;SDS011;54618;52.018;5.576;2022-08-30T13:36:45;3.95;;;0.90;;
67819;SDS011;54618;52.018;5.576;2022-08-30T13:39:12;3.42;;;1.20;;
67819;SDS011;54618;52.018;5.576;2022-08-30T13:41:37;6.10;;;1.20;;
67819;SDS011;54618;52.018;5.576;2022-08-30T13:44:03;1.92;;;1.02;;
67819;SDS011;54618;52.018;5.576;2022-08-30T13:46:30;4.32;;;1.10;;
67819;SDS011;54618;52.018;5.576;2022-08-30T13:49:01;2.17;;;1.10;;
67819;SDS011;54618;52.018;5.576;2022-08-30T13:51:28;2.30;;;1.20;;
67819;SDS011;54618;52.018;5.576;2022-08-30T13:53:54;4.70;;;1.50;;
67819;SDS011;54618;52.018;5.576;2022-08-30T13:56:20;5.20;;;1.40;;
67819;SDS011;54618;52.018;5.576;2022-08-30T13:58:45;5.63;;;1.50;;
67819;SDS011;54618;52.018;5.576;2022-08-30T14:01:11;2.08;;;1.05;;
67819;SDS011;54618;52.018;5.576;2022-08-30T14:03:36;4.10;;;1.15;;
67819;SDS011;54618;52.018;5.576;2022-08-30T14:06:02;3.33;;;1.20;;
67819;SDS011;54618;52.018;5.576;2022-08-30T14:08:29;4.05;;;1.10;;
67819;SDS011;54618;52.018;5.576;2022-08-30T14:10:55;4.78;;;1.48;;
67819;SDS011;54618;52.018;5.576;2022-08-30T14:13:22;2.17;;;1.20;;
67819;SDS011;54618;52.018;5.576;2022-08-30T14:15:49;2.40;;;1.10;;
67819;SDS011;54618;52.018;5.576;2022-08-30T14:18:15;3.72;;;1.20;;
67819;SDS011;54618;52.018;5.576;2022-08-30T14:20:41;4.65;;;1.00;;
67819;SDS011;54618;52.018;5.576;2022-08-30T14:23:07;3.03;;;1.10;;
67819;SDS011;54618;52.018;5.576;2022-08-30T14:25:32;2.75;;;1.05;;
67819;SDS011;54618;52.018;5.576;2022-08-30T14:27:58;2.25;;;1.00;;
67819;SDS011;54618;52.018;5.576;2022-08-30T14:30:24;2.47;;;1.15;;
67819;SDS011;54618;52.018;5.576;2022-08-30T14:32:50;2.25;;;1.05;;
67819;SDS011;54618;52.018;5.576;2022-08-30T14:35:15;3.20;;;1.10;;
67819;SDS011;54618;52.018;5.576;2022-08-30T14:37:43;4.40;;;1.20;;
67819;SDS011;54618;52.018;5.576;2022-08-30T14:40:11;3.20;;;1.20;;
67819;SDS011;54618;52.018;5.576;2022-08-30T14:42:36;5.68;;;1.33;;
67819;SDS011;54618;52.018;5.576;2022-08-30T14:45:02;2.90;;;1.10;;
67819;SDS011;54618;52.018;5.576;2022-08-30T14:47:28;2.53;;;1.00;;
67819;SDS011;54618;52.018;5.576;2022-08-30T14:49:53;4.32;;;1.20;;
67819;SDS011;54618;52.018;5.576;2022-08-30T14:52:22;1.73;;;1.00;;
67819;SDS011;54618;52.018;5.576;2022-08-30T14:54:48;2.28;;;1.20;;
67819;SDS011;54618;52.018;5.576;2022-08-30T14:57:14;2.63;;;1.10;;
67819;SDS011;54618;52.018;5.576;2022-08-30T14:59:40;2.05;;;1.00;;
67819;SDS011;54618;52.018;5.576;2022-08-30T15:02:06;3.08;;;0.93;;
67819;SDS011;54618;52.018;5.576;2022-08-30T15:04:31;1.95;;;1.00;;
67819;SDS011;54618;52.018;5.576;2022-08-30T15:06:57;2.58;;;1.23;;
67819;SDS011;54618;52.018;5.576;2022-08-30T15:09:23;4.32;;;1.00;;
67819;SDS011;54618;52.018;5.576;2022-08-30T15:11:50;2.38;;;1.00;;
67819;SDS011;54618;52.018;5.576;2022-08-30T15:14:17;4.20;;;1.48;;
67819;SDS011;54618;52.018;5.576;2022-08-30T15:16:43;3.20;;;1.20;;
67819;SDS011;54618;52.018;5.576;2022-08-30T15:19:08;2.85;;;1.20;;
67819;SDS011;54618;52.018;5.576;2022-08-30T15:21:36;2.25;;;1.02;;
67819;SDS011;54618;52.018;5.576;2022-08-30T15:24:04;2.10;;;1.08;;
67819;SDS011;54618;52.018;5.576;2022-08-30T15:26:32;2.33;;;1.13;;
67819;SDS011;54618;52.018;5.576;2022-08-30T15:28:57;2.92;;;1.30;;
67819;SDS011;54618;52.018;5.576;2022-08-30T15:31:24;2.80;;;1.17;;
67819;SDS011;54618;52.018;5.576;2022-08-30T15:33:56;2.03;;;1.00;;
67819;SDS011;54618;52.018;5.576;2022-08-30T15:36:22;2.00;;;1.15;;
67819;SDS011;54618;52.018;5.576;2022-08-30T15:38:50;3.60;;;1.10;;
67819;SDS011;54618;52.018;5.576;2022-08-30T15:41:16;2.15;;;1.10;;
67819;SDS011;54618;52.018;5.576;2022-08-30T15:43:42;2.65;;;1.13;;
67819;SDS011;54618;52.018;5.576;2022-08-30T15:46:19;5.03;;;1.13;;
67819;SDS011;54618;52.018;5.576;2022-08-30T15:48:48;2.58;;;1.20;;
67819;SDS011;54618;52.018;5.576;2022-08-30T15:51:16;2.15;;;1.02;;
67819;SDS011;54618;52.018;5.576;2022-08-30T15:53:42;2.83;;;1.13;;
67819;SDS011;54618;52.018;5.576;2022-08-30T15:56:09;2.30;;;1.02;;
67819;SDS011;54618;52.018;5.576;2022-08-30T15:58:39;2.15;;;1.10;;
67819;SDS011;54618;52.018;5.576;2022-08-30T16:01:05;2.20;;;1.23;;
67819;SDS011;54618;52.018;5.576;2022-08-30T16:03:31;2.65;;;1.17;;
67819;SDS011;54618;52.018;5.576;2022-08-30T16:05:58;2.15;;;1.10;;
67819;SDS011;54618;52.018;5.576;2022-08-30T16:08:24;2.90;;;1.08;;
67819;SDS011;54618;52.018;5.576;2022-08-30T16:10:49;1.75;;;1.17;;
67819;SDS011;54618;52.018;5.576;2022-08-30T16:13:15;2.67;;;1.00;;
67819;SDS011;54618;52.018;5.576;2022-08-30T16:15:41;1.70;;;0.95;;
67819;SDS011;54618;52.018;5.576;2022-08-30T16:18:08;3.17;;;1.20;;
67819;SDS011;54618;52.018;5.576;2022-08-30T16:20:34;2.30;;;1.20;;
67819;SDS011;54618;52.018;5.576;2022-08-30T16:23:00;2.33;;;1.10;;
67819;SDS011;54618;52.018;5.576;2022-08-30T16:25:26;1.75;;;0.90;;